createdAt,value
2017-09-02T00:00:06.574Z,20.996722
2017-09-02T00:20:11.694Z,20.996722
2017-09-02T01:00:21.854Z,20.934244
2017-09-02T01:20:26.833Z,20.934244
2017-09-02T01:40:31.872Z,20.934244
2017-09-02T02:20:41.869Z,20.871765999999997
2017-09-02T02:40:46.894Z,20.871765999999997
2017-09-02T03:00:51.944Z,20.871765999999997
2017-09-02T03:20:57.109Z,20.809288
2017-09-02T03:41:02.133Z,20.871765999999997
2017-09-02T04:01:07.066Z,20.809288
2017-09-02T04:21:12.112Z,20.809288
2017-09-02T04:41:17.236Z,20.809288
2017-09-02T05:01:22.188Z,20.74681
2017-09-02T05:21:27.238Z,20.74681
2017-09-02T05:41:32.282Z,20.74681
2017-09-02T06:01:37.332Z,20.684331999999998
2017-09-02T06:41:47.426Z,20.621319999999997
2017-09-02T07:01:52.544Z,20.621319999999997
2017-09-02T07:21:57.502Z,20.558842
2017-09-02T07:42:02.650Z,20.558842
2017-09-02T08:02:07.672Z,20.558842
2017-09-02T08:22:12.660Z,20.558842
2017-09-02T08:42:17.753Z,20.496364
2017-09-02T09:02:22.703Z,20.558842
2017-09-02T09:22:27.856Z,20.558842
2017-09-02T09:42:32.786Z,20.558842
2017-09-02T10:02:37.790Z,20.558842
2017-09-02T10:22:42.816Z,20.558842
2017-09-02T10:42:47.863Z,20.558842
2017-09-02T11:02:52.981Z,20.621319999999997
2017-09-02T11:22:57.940Z,20.684331999999998
2017-09-02T11:43:02.977Z,20.74681
2017-09-02T12:03:08.020Z,20.809288
2017-09-02T12:23:13.152Z,20.809288
2017-09-02T12:43:18.108Z,20.809288
2017-09-02T13:03:23.154Z,20.871765999999997
2017-09-02T13:23:28.198Z,20.871765999999997
2017-09-02T13:43:33.350Z,20.871765999999997
2017-09-02T14:03:38.250Z,20.871765999999997
2017-09-02T14:23:43.400Z,20.934244
2017-09-02T15:03:53.379Z,20.871765999999997
2017-09-02T15:23:58.487Z,20.871765999999997
2017-09-02T16:04:08.575Z,20.871765999999997
2017-09-02T16:24:13.620Z,20.871765999999997
2017-09-02T16:44:18.558Z,20.871765999999997
2017-09-02T17:04:22.690Z,20.871765999999997
2017-09-02T17:24:27.645Z,20.871765999999997
2017-09-02T17:44:32.767Z,20.809288
2017-09-02T18:24:42.759Z,20.809288
2017-09-02T18:44:47.794Z,20.809288
2017-09-02T19:04:52.846Z,20.809288
2017-09-02T19:24:57.891Z,20.74681
2017-09-02T20:05:08.053Z,20.74681
2017-09-02T20:25:13.108Z,20.74681
2017-09-02T20:45:18.149Z,20.684331999999998
2017-09-02T21:05:23.103Z,20.74681
2017-09-02T21:25:28.218Z,20.74681
2017-09-02T21:45:33.297Z,20.684331999999998
2017-09-02T22:05:38.347Z,20.684331999999998
2017-09-02T22:25:43.275Z,20.621319999999997
2017-09-02T22:45:48.319Z,20.621319999999997
2017-09-02T23:05:53.486Z,20.621319999999997
2017-09-02T23:25:58.527Z,20.621319999999997
2017-09-02T23:46:03.558Z,20.558842
